Time;durP1;ratioP1;P1;durP2;ratioP2;P2;SDS_P1;SDS_P2;PMS_P1;PMS_P2;Temp;Humidity;BMP_temperature;BMP_pressure;BME280_temperature;BME280_humidity;BME280_pressure;Samples;Min_cycle;Max_cycle;Signal;HPM_P1;HPM_P2
2022/09/12 00:01:04;;;;;;;7.03;3.17;;;13.40;99.90;;;;;;5045672;28;20232;-76
2022/09/12 00:03:53;;;;;;;8.45;3.17;;;13.40;99.90;;;;;;5044939;28;20236;-76
2022/09/12 00:06:47;;;;;;;5.15;3.40;;;13.40;99.90;;;;;;5036173;28;20228;-76
2022/09/12 00:09:35;;;;;;;5.75;3.40;;;13.30;99.90;;;;;;5037425;28;20314;-76
2022/09/12 00:12:25;;;;;;;8.90;3.85;;;13.40;99.90;;;;;;5045861;28;20241;-79
2022/09/12 00:15:13;;;;;;;6.57;3.22;;;13.30;99.90;;;;;;5034496;28;20228;-78
2022/09/12 00:18:02;;;;;;;7.45;3.25;;;13.30;99.90;;;;;;5031061;28;20227;-78
2022/09/12 00:20:50;;;;;;;8.85;3.22;;;13.30;99.90;;;;;;5031093;28;20792;-75
2022/09/12 00:23:40;;;;;;;8.43;3.17;;;13.20;99.90;;;;;;5046579;28;21193;-75
2022/09/12 00:26:29;;;;;;;5.93;3.35;;;13.20;99.90;;;;;;5035341;28;20216;-77
2022/09/12 00:29:20;;;;;;;4.25;3.33;;;13.20;99.90;;;;;;5030847;28;20590;-76
2022/09/12 00:32:08;;;;;;;7.32;3.53;;;13.20;99.90;;;;;;5033849;28;20374;-77
2022/09/12 00:34:57;;;;;;;7.07;3.50;;;13.10;99.90;;;;;;5033365;28;20228;-73
2022/09/12 00:37:45;;;;;;;6.53;3.25;;;13.20;99.90;;;;;;5027889;28;20227;-76
2022/09/12 00:40:35;;;;;;;10.73;3.72;;;13.20;99.90;;;;;;5032307;28;20256;-76
2022/09/12 00:43:38;;;;;;;5.53;3.13;;;13.20;99.90;;;;;;5034998;28;20702;-76
2022/09/12 00:46:35;;;;;;;6.22;3.42;;;13.20;99.90;;;;;;5037617;28;20631;-77
2022/09/12 00:49:28;;;;;;;7.03;3.35;;;13.20;99.90;;;;;;5015962;28;20316;-78
2022/09/12 00:52:22;;;;;;;5.88;3.20;;;13.20;99.90;;;;;;5034933;28;20277;-76
2022/09/12 00:55:15;;;;;;;6.95;3.50;;;13.10;99.90;;;;;;5009823;28;20279;-77
2022/09/12 00:58:09;;;;;;;6.00;3.42;;;13.20;99.90;;;;;;5026142;28;20600;-78
2022/09/12 01:00:59;;;;;;;7.65;2.90;;;13.10;99.90;;;;;;5036182;28;20217;-78
2022/09/12 01:03:48;;;;;;;6.13;3.10;;;13.10;99.90;;;;;;5018053;28;20218;-77
2022/09/12 01:06:42;;;;;;;6.80;3.58;;;13.20;99.90;;;;;;5026975;28;20744;-77
2022/09/12 01:09:30;;;;;;;7.55;3.30;;;13.20;99.90;;;;;;5022567;28;20733;-76
2022/09/12 01:12:19;;;;;;;5.55;3.10;;;13.20;99.90;;;;;;5038457;28;20236;-78
2022/09/12 01:15:10;;;;;;;5.43;3.28;;;13.20;99.90;;;;;;4998372;28;20299;-77
2022/09/12 01:18:08;;;;;;;5.43;3.13;;;13.20;99.90;;;;;;5011454;28;20220;-77
2022/09/12 01:21:10;;;;;;;5.50;3.10;;;13.20;99.90;;;;;;5035121;28;20232;-77
2022/09/12 01:24:41;;;;;;;9.63;3.40;;;13.20;99.90;;;;;;5032281;28;20247;-75
2022/09/12 01:27:48;;;;;;;6.68;3.20;;;13.20;99.90;;;;;;5054474;28;20217;-76
2022/09/12 01:30:47;;;;;;;6.85;3.30;;;13.20;99.90;;;;;;5053365;28;20220;-76
2022/09/12 01:33:50;;;;;;;8.05;3.58;;;13.20;99.90;;;;;;5047600;28;20760;-76
2022/09/12 01:36:44;;;;;;;6.38;3.47;;;13.10;99.90;;;;;;5045337;28;20223;-80
2022/09/12 01:39:43;;;;;;;7.30;3.28;;;13.10;99.90;;;;;;5045160;28;20209;-77
2022/09/12 01:42:37;;;;;;;8.25;3.50;;;13.10;99.90;;;;;;5044979;28;20221;-78
2022/09/12 01:45:31;;;;;;;6.32;3.47;;;13.10;99.90;;;;;;5036379;28;20244;-79
2022/09/12 01:48:26;;;;;;;4.22;3.10;;;13.10;99.90;;;;;;5034831;28;20256;-79
2022/09/12 01:51:21;;;;;;;6.28;3.33;;;13.10;99.90;;;;;;5035906;28;20217;-78
2022/09/12 01:54:12;;;;;;;6.70;3.50;;;13.10;99.90;;;;;;5037262;28;20512;-78
2022/09/12 01:57:07;;;;;;;4.95;3.25;;;13.10;99.90;;;;;;5036113;28;20470;-77
2022/09/12 02:00:02;;;;;;;5.32;3.65;;;13.10;99.90;;;;;;5039003;28;20228;-77
2022/09/12 02:03:05;;;;;;;12.27;3.53;;;13.00;99.90;;;;;;5036017;28;20212;-79
2022/09/12 02:05:59;;;;;;;3.80;3.17;;;13.00;99.90;;;;;;5035927;28;20229;-78
2022/09/12 02:08:52;;;;;;;5.45;2.85;;;13.00;99.90;;;;;;5037871;28;20263;-80
2022/09/12 02:11:43;;;;;;;6.50;3.58;;;13.10;99.90;;;;;;5029750;28;20306;-77
2022/09/12 02:14:37;;;;;;;4.93;3.20;;;13.10;99.90;;;;;;5036371;28;20329;-78
2022/09/12 02:17:26;;;;;;;6.05;3.10;;;13.00;99.90;;;;;;5033635;28;20713;-77
2022/09/12 02:20:20;;;;;;;6.95;3.42;;;13.00;99.90;;;;;;5043910;28;20287;-77
2022/09/12 02:23:32;;;;;;;5.50;3.00;;;13.00;99.90;;;;;;5029041;28;20276;-78
2022/09/12 02:26:25;;;;;;;7.18;3.30;;;13.00;99.90;;;;;;5029763;28;20252;-78
2022/09/12 02:29:17;;;;;;;5.65;3.25;;;12.90;99.90;;;;;;5033498;28;20626;-78
2022/09/12 02:32:16;;;;;;;7.53;3.83;;;13.00;99.90;;;;;;5024793;28;20697;-79
2022/09/12 02:35:11;;;;;;;6.05;3.10;;;12.90;99.90;;;;;;5037150;28;20232;-78
2022/09/12 02:38:06;;;;;;;5.85;3.40;;;12.90;99.90;;;;;;5039494;28;20610;-78
2022/09/12 02:40:56;;;;;;;7.97;3.65;;;12.90;99.90;;;;;;5042358;28;20242;-77
2022/09/12 02:43:45;;;;;;;6.40;3.13;;;13.00;99.90;;;;;;5034914;28;20217;-77
2022/09/12 02:46:43;;;;;;;6.45;3.28;;;13.00;99.90;;;;;;5032137;28;20221;-79
2022/09/12 02:49:32;;;;;;;7.47;3.72;;;13.00;99.90;;;;;;5024234;28;20222;-78
2022/09/12 02:52:21;;;;;;;7.45;3.30;;;12.90;99.90;;;;;;5024029;28;20241;-79
2022/09/12 02:55:11;;;;;;;5.40;3.22;;;12.90;99.90;;;;;;5035642;28;20221;-83
2022/09/12 02:58:03;;;;;;;6.72;3.15;;;13.00;99.90;;;;;;5020702;28;20749;-78
2022/09/12 03:01:00;;;;;;;8.20;3.10;;;13.00;99.90;;;;;;5015595;28;20209;-78
2022/09/12 03:04:02;;;;;;;4.57;3.30;;;13.00;99.90;;;;;;5032857;28;20220;-78
2022/09/12 03:07:01;;;;;;;6.32;3.22;;;13.00;99.90;;;;;;5033201;28;20275;-79
2022/09/12 03:09:59;;;;;;;6.60;3.70;;;13.00;99.90;;;;;;5037704;28;20225;-80
2022/09/12 03:13:00;;;;;;;4.32;3.22;;;12.90;99.90;;;;;;5038085;28;20232;-78
2022/09/12 03:15:59;;;;;;;5.90;3.30;;;13.00;99.90;;;;;;5035173;28;20249;-77
2022/09/12 03:19:01;;;;;;;7.35;3.42;;;12.90;99.90;;;;;;5032068;28;20236;-76
2022/09/12 03:22:02;;;;;;;8.38;3.20;;;12.90;99.90;;;;;;5034363;28;20315;-75
2022/09/12 03:24:56;;;;;;;4.57;3.40;;;12.90;99.90;;;;;;5034347;28;20316;-74
2022/09/12 03:27:49;;;;;;;6.55;3.58;;;12.90;99.90;;;;;;5034077;28;20253;-76
2022/09/12 03:30:39;;;;;;;9.45;3.70;;;12.90;99.90;;;;;;5046476;28;20217;-76
2022/09/12 03:33:29;;;;;;;6.65;3.90;;;12.90;99.90;;;;;;5029458;28;20220;-76
2022/09/12 03:36:22;;;;;;;6.88;3.80;;;12.90;99.90;;;;;;5029187;28;20720;-76
2022/09/12 03:39:10;;;;;;;7.38;3.60;;;12.90;99.90;;;;;;5039790;28;20217;-75
2022/09/12 03:41:59;;;;;;;6.95;4.00;;;13.00;99.90;;;;;;5042664;28;20228;-75
2022/09/12 03:44:47;;;;;;;8.50;3.60;;;13.00;99.90;;;;;;5015154;28;20307;-75
2022/09/12 03:47:36;;;;;;;8.30;3.67;;;12.90;99.90;;;;;;5018218;28;20749;-77
2022/09/12 03:50:26;;;;;;;6.78;4.10;;;13.00;99.90;;;;;;5032787;28;20898;-77
2022/09/12 03:53:15;;;;;;;9.85;4.43;;;12.90;99.90;;;;;;5016436;28;20237;-78
2022/09/12 03:56:08;;;;;;;7.13;4.03;;;12.90;99.90;;;;;;5031472;28;20232;-77
2022/09/12 03:58:57;;;;;;;7.15;4.25;;;12.90;99.90;;;;;;5014967;28;20316;-80
2022/09/12 04:01:45;;;;;;;6.15;4.57;;;12.80;99.90;;;;;;5017582;28;20224;-80
2022/09/12 04:04:35;;;;;;;11.18;4.60;;;12.70;99.90;;;;;;5031850;28;20710;-81
2022/09/12 04:07:25;;;;;;;8.43;5.00;;;12.70;99.90;;;;;;5048389;28;20231;-81
2022/09/12 04:10:14;;;;;;;8.00;4.47;;;12.70;99.90;;;;;;5035339;28;20217;-77
2022/09/12 04:13:03;;;;;;;7.60;4.70;;;12.70;99.90;;;;;;5030727;28;20232;-77
2022/09/12 04:15:58;;;;;;;7.15;4.80;;;12.80;99.90;;;;;;5048091;28;20737;-77
2022/09/12 04:18:47;;;;;;;7.43;5.00;;;12.80;99.90;;;;;;5034689;28;20957;-76
2022/09/12 04:21:36;;;;;;;7.28;4.90;;;12.80;99.90;;;;;;5035359;28;20385;-77
2022/09/12 04:24:26;;;;;;;9.98;5.22;;;12.70;99.90;;;;;;5047641;28;20267;-79
2022/09/12 04:27:14;;;;;;;7.85;5.00;;;12.50;99.90;;;;;;5050300;28;20267;-77
2022/09/12 04:30:03;;;;;;;7.78;5.35;;;12.60;99.90;;;;;;5038187;28;20225;-78
2022/09/12 04:32:52;;;;;;;10.45;5.07;;;12.60;99.90;;;;;;5038934;28;20236;-77
2022/09/12 04:35:41;;;;;;;11.15;4.85;;;12.60;99.90;;;;;;5038338;28;20286;-77
2022/09/12 04:38:30;;;;;;;5.82;4.80;;;12.50;99.90;;;;;;5049776;28;20240;-77
2022/09/12 04:41:21;;;;;;;7.70;5.57;;;12.60;99.90;;;;;;5037108;28;20265;-78
2022/09/12 04:44:12;;;;;;;6.63;5.18;;;12.40;99.90;;;;;;5026606;28;20256;-77
2022/09/12 04:47:02;;;;;;;8.23;5.13;;;12.30;99.90;;;;;;5026808;28;20691;-77
2022/09/12 04:49:51;;;;;;;7.00;5.30;;;12.40;99.90;;;;;;5032379;28;20232;-77
2022/09/12 04:52:39;;;;;;;6.97;5.50;;;12.40;99.90;;;;;;5026280;28;20232;-75
2022/09/12 04:55:32;;;;;;;8.75;5.30;;;12.40;99.90;;;;;;5027785;28;20236;-75
2022/09/12 04:58:22;;;;;;;7.53;5.53;;;12.50;99.90;;;;;;5038308;28;20946;-76
2022/09/12 05:01:12;;;;;;;9.90;5.22;;;12.50;99.90;;;;;;5034583;28;20612;-76
2022/09/12 05:04:01;;;;;;;7.00;4.80;;;12.50;99.90;;;;;;5034328;28;20778;-76
2022/09/12 05:06:49;;;;;;;7.82;5.70;;;12.50;99.90;;;;;;5037189;28;20550;-78
2022/09/12 05:09:38;;;;;;;8.32;5.40;;;12.50;99.90;;;;;;5035501;28;20221;-78
2022/09/12 05:12:27;;;;;;;13.07;5.80;;;12.50;99.90;;;;;;5028515;28;20224;-78
2022/09/12 05:15:17;;;;;;;9.95;5.57;;;12.40;99.90;;;;;;5046514;28;20748;-78
2022/09/12 05:18:06;;;;;;;9.18;6.00;;;12.50;99.90;;;;;;5036203;28;20232;-77
2022/09/12 05:20:55;;;;;;;7.00;5.72;;;12.50;99.90;;;;;;5047729;28;20216;-78
2022/09/12 05:23:44;;;;;;;7.82;5.90;;;12.50;99.90;;;;;;5036218;28;20256;-78
2022/09/12 05:26:33;;;;;;;8.38;6.07;;;12.50;99.90;;;;;;5037053;28;20228;-79
2022/09/12 05:29:21;;;;;;;8.25;5.95;;;12.40;99.90;;;;;;5035399;28;20221;-78
2022/09/12 05:32:12;;;;;;;8.50;6.10;;;12.50;99.90;;;;;;5047920;28;20252;-78
2022/09/12 05:35:00;;;;;;;8.60;6.25;;;12.50;99.90;;;;;;5031914;28;20224;-77
2022/09/12 05:37:49;;;;;;;11.10;7.30;;;12.50;99.90;;;;;;5032606;28;20757;-78
2022/09/12 05:40:38;;;;;;;9.57;6.28;;;12.50;99.90;;;;;;5034452;28;20232;-78
2022/09/12 05:43:27;;;;;;;7.35;6.32;;;12.40;99.90;;;;;;5031918;28;20310;-80
2022/09/12 05:46:17;;;;;;;9.25;5.65;;;12.50;99.90;;;;;;5036853;28;21581;-78
2022/09/12 05:49:09;;;;;;;8.60;5.63;;;12.50;99.90;;;;;;5032655;28;20232;-78
2022/09/12 05:51:57;;;;;;;8.48;5.68;;;12.50;99.90;;;;;;5033847;28;20217;-78
2022/09/12 05:54:46;;;;;;;11.10;6.05;;;12.50;99.90;;;;;;5045960;28;20351;-80
2022/09/12 05:57:35;;;;;;;7.75;5.45;;;12.50;99.90;;;;;;5031652;28;20579;-79
2022/09/12 06:00:23;;;;;;;6.78;5.50;;;12.50;99.90;;;;;;5034368;28;21095;-79
2022/09/12 06:03:13;;;;;;;9.05;5.78;;;12.60;99.90;;;;;;5035152;28;20544;-84
2022/09/12 06:06:05;;;;;;;8.80;5.50;;;12.50;99.90;;;;;;5035664;28;20301;-83
2022/09/12 06:08:56;;;;;;;8.13;5.60;;;12.50;99.90;;;;;;5034688;28;20241;-82
2022/09/12 06:11:45;;;;;;;10.73;6.63;;;12.60;99.90;;;;;;5035841;28;20224;-81
2022/09/12 06:14:34;;;;;;;14.48;12.40;;;12.50;99.90;;;;;;5031404;28;20220;-82
2022/09/12 06:17:23;;;;;;;16.65;11.48;;;12.50;99.90;;;;;;5035381;28;20359;-83
2022/09/12 06:20:11;;;;;;;11.02;7.35;;;12.50;99.90;;;;;;5035066;28;20220;-83
2022/09/12 06:23:01;;;;;;;6.88;5.53;;;12.60;99.90;;;;;;5044979;28;20256;-82
2022/09/12 06:25:50;;;;;;;13.70;5.93;;;12.70;99.90;;;;;;5037739;28;20233;-83
2022/09/12 06:28:41;;;;;;;11.80;6.03;;;12.70;99.90;;;;;;5036318;28;20324;-82
2022/09/12 06:31:32;;;;;;;7.63;5.15;;;12.70;99.90;;;;;;5032172;28;20844;-83
2022/09/12 06:34:20;;;;;;;9.07;5.53;;;12.70;99.90;;;;;;5036892;28;20237;-78
2022/09/12 06:37:09;;;;;;;9.23;5.60;;;12.80;99.90;;;;;;5040704;28;20694;-80
2022/09/12 06:39:59;;;;;;;8.40;5.88;;;12.80;99.90;;;;;;5022524;28;20296;-80
2022/09/12 06:42:49;;;;;;;9.13;5.50;;;12.90;99.90;;;;;;5046170;28;20480;-88
2022/09/12 06:45:52;;;;;;;9.55;5.78;;;12.80;99.90;;;;;;5058167;28;20221;-86
2022/09/12 06:48:41;;;;;;;10.05;5.80;;;12.70;99.90;;;;;;5036887;28;20696;-87
2022/09/12 06:51:30;;;;;;;8.93;5.50;;;12.90;99.90;;;;;;5037371;28;20240;-84
2022/09/12 06:54:18;;;;;;;9.75;5.95;;;12.90;99.90;;;;;;5037577;28;20302;-84
2022/09/12 06:57:09;;;;;;;11.02;5.63;;;12.80;99.90;;;;;;5030995;28;20214;-83
2022/09/12 06:59:57;;;;;;;9.57;5.97;;;12.80;99.90;;;;;;5034313;28;20315;-83
2022/09/12 07:02:46;;;;;;;6.70;5.80;;;12.90;99.90;;;;;;5011839;28;20714;-85
2022/09/12 07:05:36;;;;;;;7.45;5.57;;;13.00;99.90;;;;;;5036974;28;20225;-84
2022/09/12 07:08:24;;;;;;;9.85;6.20;;;13.00;99.90;;;;;;5032131;28;20613;-84
2022/09/12 07:11:15;;;;;;;7.32;5.50;;;12.90;99.90;;;;;;5033674;28;20225;-84
2022/09/12 07:14:11;;;;;;;10.60;5.65;;;12.90;99.90;;;;;;5032272;28;20625;-82
2022/09/12 07:17:00;;;;;;;13.80;5.70;;;12.90;99.90;;;;;;5036553;28;20221;-83
2022/09/12 07:19:49;;;;;;;11.00;5.75;;;13.00;99.90;;;;;;5043691;28;20229;-84
2022/09/12 07:22:37;;;;;;;13.48;5.85;;;13.10;99.90;;;;;;5035919;28;20226;-83
2022/09/12 07:25:26;;;;;;;9.32;5.57;;;13.00;99.90;;;;;;5035533;28;20229;-84
2022/09/12 07:28:15;;;;;;;9.35;5.70;;;13.00;99.90;;;;;;5031377;28;20222;-86
2022/09/12 07:31:10;;;;;;;10.68;5.97;;;13.00;99.90;;;;;;5034707;28;20224;-82
2022/09/12 07:33:59;;;;;;;8.98;5.43;;;13.10;99.90;;;;;;5033040;28;20726;-81
2022/09/12 07:36:47;;;;;;;6.28;5.32;;;13.10;99.90;;;;;;5032380;28;20233;-81
2022/09/12 07:39:36;;;;;;;10.27;5.57;;;13.10;99.90;;;;;;5050015;28;20260;-81
2022/09/12 07:42:25;;;;;;;12.57;6.18;;;13.20;99.90;;;;;;5034888;28;20575;-82
2022/09/12 07:45:14;;;;;;;7.93;5.25;;;13.30;99.90;;;;;;5038024;28;20224;-81
2022/09/12 07:48:04;;;;;;;9.68;6.25;;;13.40;99.90;;;;;;5051291;28;20245;-82
2022/09/12 07:50:58;;;;;;;11.40;6.15;;;13.40;99.90;;;;;;5030282;28;20217;-86
2022/09/12 07:53:48;;;;;;;10.10;6.00;;;13.40;99.90;;;;;;5036373;28;20362;-85
2022/09/12 07:56:36;;;;;;;8.57;5.75;;;13.50;99.90;;;;;;5047989;28;20797;-82
2022/09/12 07:59:27;;;;;;;17.95;13.15;;;13.60;99.90;;;;;;5018905;28;20228;-83
2022/09/12 08:02:35;;;;;;;6.88;5.50;;;13.50;99.90;;;;;;5036063;28;20256;-83
2022/09/12 08:05:25;;;;;;;6.97;5.78;;;13.50;99.90;;;;;;5030707;28;20221;-83
2022/09/12 08:08:14;;;;;;;11.00;5.80;;;13.50;99.90;;;;;;5033638;28;20238;-83
2022/09/12 08:11:05;;;;;;;7.80;5.68;;;13.60;99.90;;;;;;5032406;28;20316;-82
2022/09/12 08:13:55;;;;;;;12.02;5.80;;;13.60;99.90;;;;;;5018071;28;20242;-84
2022/09/12 08:16:44;;;;;;;9.23;6.20;;;13.60;99.90;;;;;;5017376;28;20356;-83
2022/09/12 08:19:33;;;;;;;9.63;6.03;;;13.60;99.90;;;;;;5034417;28;20713;-84
2022/09/12 08:22:24;;;;;;;9.93;5.78;;;13.70;99.90;;;;;;5033809;28;20435;-85
2022/09/12 08:25:13;;;;;;;7.38;5.78;;;13.70;99.90;;;;;;5040269;28;20225;-84
2022/09/12 08:28:02;;;;;;;8.93;5.70;;;13.60;99.90;;;;;;5053905;28;20206;-85
2022/09/12 08:30:50;;;;;;;8.23;5.35;;;13.80;99.90;;;;;;5045300;28;20524;-84
2022/09/12 08:33:39;;;;;;;9.32;5.35;;;13.70;99.90;;;;;;5015652;28;20264;-81
2022/09/12 08:36:28;;;;;;;10.15;5.50;;;13.80;99.90;;;;;;5016374;28;20235;-78
2022/09/12 08:39:18;;;;;;;8.82;5.10;;;13.70;99.90;;;;;;5024678;28;20316;-78
2022/09/12 08:42:10;;;;;;;7.57;5.45;;;13.80;99.90;;;;;;5034342;28;20213;-79
2022/09/12 08:45:17;;;;;;;8.40;5.03;;;13.90;99.90;;;;;;5019898;28;20236;-78
2022/09/12 08:48:08;;;;;;;9.45;5.35;;;14.10;99.90;;;;;;5032656;28;20283;-78
2022/09/12 08:50:58;;;;;;;9.55;5.78;;;14.20;99.90;;;;;;5037881;28;20232;-78
2022/09/12 08:53:49;;;;;;;9.60;5.43;;;14.20;99.90;;;;;;5013612;28;21002;-80
2022/09/12 08:56:39;;;;;;;9.18;5.15;;;14.10;99.90;;;;;;5020598;28;20835;-79
2022/09/12 08:59:37;;;;;;;8.77;4.97;;;14.00;99.90;;;;;;5004874;28;20298;-79
2022/09/12 09:02:45;;;;;;;8.38;5.43;;;14.10;99.90;;;;;;5030552;28;20232;-80
2022/09/12 09:05:46;;;;;;;11.75;5.38;;;14.20;99.90;;;;;;5021273;28;20221;-79
2022/09/12 09:08:46;;;;;;;7.15;4.80;;;14.20;99.90;;;;;;5018940;28;20236;-78
2022/09/12 09:11:54;;;;;;;11.63;5.55;;;14.30;99.90;;;;;;5018682;28;20221;-80
2022/09/12 09:14:59;;;;;;;11.15;5.40;;;14.20;99.90;;;;;;5015408;28;20779;-80
2022/09/12 09:17:52;;;;;;;8.52;5.18;;;14.30;99.90;;;;;;5036834;28;20932;-79
2022/09/12 09:20:48;;;;;;;9.73;5.60;;;14.30;99.90;;;;;;5041587;28;20217;-78
2022/09/12 09:23:41;;;;;;;7.97;5.25;;;14.40;99.90;;;;;;5041036;28;20851;-80
2022/09/12 09:26:39;;;;;;;8.98;5.70;;;14.50;99.90;;;;;;5041899;28;20768;-80
2022/09/12 09:29:35;;;;;;;10.05;5.55;;;14.60;99.90;;;;;;5036243;28;20318;-81
2022/09/12 09:32:28;;;;;;;6.60;4.95;;;14.60;99.90;;;;;;5036144;28;20302;-80
2022/09/12 09:35:20;;;;;;;10.07;5.38;;;14.60;99.90;;;;;;5049893;28;21438;-81
2022/09/12 09:38:22;;;;;;;9.40;5.32;;;14.60;99.90;;;;;;5033710;28;20221;-80
2022/09/12 09:41:30;;;;;;;8.38;5.28;;;14.70;99.90;;;;;;5049510;28;20236;-80
2022/09/12 09:44:18;;;;;;;9.23;5.03;;;14.70;99.90;;;;;;5033247;28;20240;-81
2022/09/12 09:47:12;;;;;;;7.63;4.88;;;14.80;99.90;;;;;;5034444;28;20305;-80
2022/09/12 09:50:00;;;;;;;12.68;5.03;;;14.70;99.90;;;;;;5048422;28;20482;-79
2022/09/12 09:52:52;;;;;;;8.95;4.60;;;14.70;99.90;;;;;;5047348;28;20237;-82
2022/09/12 09:55:43;;;;;;;12.70;6.00;;;14.80;99.90;;;;;;5037276;28;20244;-80
2022/09/12 09:58:33;;;;;;;14.27;5.78;;;14.90;99.90;;;;;;5032279;28;20248;-80
2022/09/12 10:01:21;;;;;;;9.52;5.20;;;14.90;99.90;;;;;;5051119;28;20232;-81
2022/09/12 10:04:19;;;;;;;13.75;6.30;;;14.80;99.90;;;;;;5029038;28;20791;-81
2022/09/12 10:07:18;;;;;;;9.25;5.35;;;14.80;99.90;;;;;;5037650;28;20233;-77
2022/09/12 10:10:15;;;;;;;5.97;4.85;;;14.90;99.90;;;;;;5039931;28;20236;-77
2022/09/12 10:13:09;;;;;;;12.57;5.47;;;14.90;99.90;;;;;;5040668;28;20221;-79
2022/09/12 10:30:54;;;;;;;8.68;4.93;;;14.60;99.90;;;;;;5037353;28;20263;-80
2022/09/12 10:33:51;;;;;;;9.02;4.80;;;14.60;99.90;;;;;;5046681;28;20408;-80
2022/09/12 10:36:40;;;;;;;7.07;5.05;;;14.50;99.90;;;;;;5048518;28;20209;-80
2022/09/12 10:39:30;;;;;;;6.30;4.50;;;14.50;99.90;;;;;;5035538;28;20309;-77
2022/09/12 10:42:48;;;;;;;6.35;4.82;;;14.50;99.90;;;;;;5036873;28;20742;-80
2022/09/12 10:45:37;;;;;;;6.55;4.72;;;14.50;99.90;;;;;;5037699;28;20290;-80
2022/09/12 10:48:34;;;;;;;9.60;4.90;;;14.60;99.90;;;;;;5034122;28;20217;-80
2022/09/12 10:51:29;;;;;;;10.65;5.30;;;14.60;99.90;;;;;;5031643;28;20729;-80
2022/09/12 10:54:19;;;;;;;9.40;4.70;;;14.60;99.90;;;;;;5031741;28;20256;-80
2022/09/12 10:57:26;;;;;;;13.57;5.05;;;14.50;99.90;;;;;;5032393;28;20225;-81
2022/09/12 11:00:26;;;;;;;11.25;5.13;;;14.50;99.90;;;;;;5031478;28;20746;-81
2022/09/12 11:03:23;;;;;;;10.35;5.13;;;14.50;99.90;;;;;;5033737;28;20231;-81
2022/09/12 11:06:19;;;;;;;12.65;5.07;;;14.60;99.90;;;;;;5032706;28;20221;-80
2022/09/12 11:09:14;;;;;;;5.85;4.57;;;14.60;99.90;;;;;;5034111;28;20225;-80
2022/09/12 11:12:12;;;;;;;8.98;4.50;;;14.50;99.90;;;;;;5033247;28;20217;-80
2022/09/12 11:15:16;;;;;;;9.18;4.97;;;14.60;99.90;;;;;;5034559;28;20651;-81
2022/09/12 11:18:17;;;;;;;10.50;5.15;;;14.50;99.90;;;;;;5043231;28;20232;-83
2022/09/12 11:21:34;;;;;;;6.90;4.65;;;14.60;99.90;;;;;;5031859;28;20723;-81
2022/09/12 11:24:39;;;;;;;13.23;5.28;;;14.50;99.90;;;;;;5033055;28;20304;-81
2022/09/12 11:27:48;;;;;;;16.02;5.22;;;14.60;99.90;;;;;;5045961;28;20306;-81
2022/09/12 11:30:45;;;;;;;10.52;5.53;;;14.80;99.90;;;;;;5031172;28;20226;-80
2022/09/12 11:33:51;;;;;;;8.02;4.75;;;14.80;99.90;;;;;;5044613;28;20319;-80
2022/09/12 11:37:05;;;;;;;11.90;7.65;;;15.00;99.90;;;;;;5029829;28;20223;-83
2022/09/12 11:40:07;;;;;;;12.52;5.45;;;15.10;99.90;;;;;;5031889;28;20224;-82
2022/09/12 11:43:00;;;;;;;11.88;4.97;;;15.30;99.90;;;;;;5045773;28;20314;-81
2022/09/12 11:45:51;;;;;;;14.05;4.90;;;15.30;99.90;;;;;;5038594;28;20294;-82
2022/09/12 11:48:45;;;;;;;10.07;5.10;;;15.30;99.90;;;;;;5032059;28;20725;-83
2022/09/12 11:51:39;;;;;;;7.65;4.55;;;15.20;99.90;;;;;;5047162;28;20232;-80
2022/09/12 11:54:33;;;;;;;11.90;5.18;;;15.00;99.90;;;;;;5062474;28;20674;-83
2022/09/12 11:57:30;;;;;;;9.95;5.25;;;15.00;99.90;;;;;;5038612;28;20709;-82
2022/09/12 12:00:22;;;;;;;9.40;5.25;;;14.90;99.90;;;;;;5047082;28;20306;-83
2022/09/12 12:03:16;;;;;;;8.13;4.57;;;14.90;99.90;;;;;;5046419;28;20229;-83
2022/09/12 12:06:11;;;;;;;10.10;4.82;;;14.80;99.90;;;;;;5034797;28;21018;-84
2022/09/12 12:09:04;;;;;;;7.78;4.57;;;14.90;99.90;;;;;;5030346;28;20221;-85
2022/09/12 12:11:57;;;;;;;7.47;4.60;;;14.90;99.90;;;;;;5046752;28;20221;-83
2022/09/12 12:14:53;;;;;;;13.25;4.80;;;14.90;99.90;;;;;;5028598;28;20229;-87
2022/09/12 12:17:42;;;;;;;12.07;4.90;;;14.90;99.90;;;;;;5033751;28;20296;-83
2022/09/12 12:20:31;;;;;;;8.00;4.70;;;14.90;99.90;;;;;;5031401;28;20259;-83
2022/09/12 12:23:29;;;;;;;8.73;4.90;;;15.00;99.90;;;;;;5037334;28;20225;-84
2022/09/12 12:26:54;;;;;;;9.15;4.57;;;14.90;99.90;;;;;;5037386;28;20229;-84
2022/09/12 12:29:44;;;;;;;8.25;4.88;;;15.00;99.90;;;;;;5033518;28;20303;-84
2022/09/12 12:32:34;;;;;;;8.73;5.43;;;14.90;99.90;;;;;;5029602;28;20722;-81
2022/09/12 12:35:45;;;;;;;10.80;4.90;;;14.90;99.90;;;;;;5049352;28;20904;-82
2022/09/12 12:38:35;;;;;;;11.68;5.20;;;14.90;99.90;;;;;;5032902;28;20236;-81
2022/09/12 12:41:44;;;;;;;9.20;4.70;;;15.00;99.90;;;;;;5025410;28;20235;-81
2022/09/12 12:44:55;;;;;;;10.38;4.53;;;15.00;99.90;;;;;;5032533;28;20693;-84
2022/09/12 12:47:46;;;;;;;6.65;4.47;;;15.10;99.90;;;;;;5037399;28;20266;-84
2022/09/12 12:50:35;;;;;;;11.30;5.43;;;15.20;99.90;;;;;;5035957;28;20236;-82
2022/09/12 12:53:26;;;;;;;10.18;4.72;;;15.30;99.90;;;;;;5045639;28;20220;-82
2022/09/12 12:56:39;;;;;;;8.95;4.68;;;15.20;99.90;;;;;;5043993;28;20229;-81
2022/09/12 12:59:28;;;;;;;11.85;4.72;;;15.30;99.90;;;;;;5034792;28;20225;-80
2022/09/12 13:02:23;;;;;;;6.00;3.70;;;15.20;99.90;;;;;;5035436;28;20236;-79
2022/09/12 13:05:19;;;;;;;7.53;4.13;;;15.00;99.90;;;;;;5033136;28;20222;-81
2022/09/12 13:08:10;;;;;;;7.93;4.00;;;15.10;99.90;;;;;;5035124;28;20658;-79
2022/09/12 13:11:01;;;;;;;7.78;3.60;;;15.10;99.90;;;;;;5032231;28;20243;-80
2022/09/12 13:13:53;;;;;;;7.88;4.10;;;15.20;99.90;;;;;;5035677;28;20221;-80
2022/09/12 13:16:55;;;;;;;6.03;3.67;;;15.20;99.90;;;;;;5032618;28;20229;-83
2022/09/12 13:19:47;;;;;;;5.95;3.90;;;15.10;99.90;;;;;;5032051;28;20285;-82
2022/09/12 13:22:41;;;;;;;11.10;4.20;;;15.10;99.90;;;;;;5037894;28;20220;-81
2022/09/12 13:25:32;;;;;;;5.10;4.13;;;15.20;99.90;;;;;;5038007;28;20788;-83
2022/09/12 13:28:21;;;;;;;7.25;4.13;;;15.20;99.90;;;;;;5036800;28;20216;-80
2022/09/12 13:31:22;;;;;;;5.63;3.50;;;15.20;99.90;;;;;;5052140;28;20225;-82
2022/09/12 13:34:18;;;;;;;6.32;4.30;;;15.30;99.90;;;;;;5050023;28;20242;-81
2022/09/12 13:37:33;;;;;;;9.05;4.15;;;15.20;99.90;;;;;;5038201;28;20766;-82
2022/09/12 13:40:31;;;;;;;9.00;4.50;;;15.20;99.90;;;;;;5042709;28;20228;-81
2022/09/12 13:43:30;;;;;;;5.45;4.03;;;15.30;99.90;;;;;;5039261;28;20251;-81
2022/09/12 13:46:28;;;;;;;12.90;4.47;;;15.50;99.90;;;;;;5024340;28;20221;-83
2022/09/12 13:49:22;;;;;;;5.95;4.18;;;15.60;99.90;;;;;;5044967;28;20239;-80
2022/09/12 13:52:18;;;;;;;6.85;4.00;;;15.80;99.90;;;;;;5047648;28;20217;-84
2022/09/12 13:55:29;;;;;;;7.57;4.03;;;15.80;99.90;;;;;;5033727;28;20356;-85
2022/09/12 13:58:21;;;;;;;8.00;3.78;;;15.80;99.90;;;;;;5045523;28;20226;-87
2022/09/12 14:01:13;;;;;;;7.28;3.58;;;15.80;99.90;;;;;;5040027;28;20270;-84
2022/09/12 14:07:23;;;;;;;6.28;4.13;;;15.90;99.90;;;;;;5024920;28;20229;-83
2022/09/12 14:10:20;;;;;;;4.55;3.80;;;15.90;99.90;;;;;;5036881;28;20225;-83
2022/09/12 14:13:13;;;;;;;6.72;3.80;;;15.80;99.90;;;;;;5048577;28;20280;-82
2022/09/12 14:16:08;;;;;;;5.13;3.95;;;15.90;99.90;;;;;;5041283;28;20232;-81
2022/09/12 14:18:58;;;;;;;6.70;3.65;;;16.00;99.90;;;;;;5035261;28;20251;-81
2022/09/12 14:21:48;;;;;;;5.13;3.60;;;15.90;99.90;;;;;;5038074;28;20216;-83
2022/09/12 14:24:38;;;;;;;5.60;3.50;;;16.00;99.90;;;;;;5038138;28;20320;-80
2022/09/12 14:27:44;;;;;;;5.60;3.55;;;16.00;99.90;;;;;;5036576;28;20313;-82
2022/09/12 14:30:36;;;;;;;9.43;3.97;;;16.10;99.90;;;;;;5035845;28;20218;-81
2022/09/12 14:33:24;;;;;;;7.30;3.95;;;16.00;99.90;;;;;;5019860;28;20221;-80
2022/09/12 14:36:20;;;;;;;6.50;3.90;;;15.80;99.90;;;;;;5019815;28;20576;-82
2022/09/12 14:39:20;;;;;;;5.57;4.63;;;15.80;99.90;;;;;;5023073;28;20236;-80
2022/09/12 14:42:15;;;;;;;5.90;4.80;;;15.90;99.90;;;;;;5038206;28;21289;-81
2022/09/12 14:45:16;;;;;;;7.40;4.38;;;15.90;99.90;;;;;;5038938;28;20224;-80
2022/09/12 14:48:05;;;;;;;7.88;4.07;;;15.80;99.90;;;;;;5036578;28;20220;-80
2022/09/12 14:50:54;;;;;;;6.03;3.60;;;15.80;99.90;;;;;;5018490;28;20300;-79
2022/09/12 14:53:48;;;;;;;4.25;3.85;;;15.80;99.90;;;;;;5035080;28;20302;-84
2022/09/12 14:56:40;;;;;;;6.60;4.40;;;15.70;99.90;;;;;;5038482;28;20232;-84
2022/09/12 14:59:31;;;;;;;6.82;4.85;;;15.60;99.90;;;;;;5021713;28;20233;-82
2022/09/12 15:02:26;;;;;;;6.63;4.50;;;15.70;99.90;;;;;;5040166;28;20724;-85
2022/09/12 15:05:17;;;;;;;5.20;3.50;;;15.70;99.90;;;;;;5032824;28;20263;-84
2022/09/12 15:08:15;;;;;;;4.20;3.80;;;15.70;99.90;;;;;;5022629;28;20332;-81
2022/09/12 15:11:07;;;;;;;6.32;4.47;;;15.60;99.90;;;;;;5017514;28;20217;-80
2022/09/12 15:13:55;;;;;;;5.10;4.50;;;15.40;99.90;;;;;;5021461;28;20248;-80
2022/09/12 15:16:44;;;;;;;12.82;6.90;;;15.40;99.90;;;;;;5036640;28;20984;-80
2022/09/12 15:19:34;;;;;;;10.73;6.07;;;15.40;99.90;;;;;;5028255;28;20776;-81